sensor_id;sensor_type;location;lat;lon;timestamp;pressure;altitude;pressure_sealevel;temperature;humidity
50093;BME280;35974;47.752;10.290;2024-03-25T00:02:13;93171.09;;;0.56;100.00
50093;BME280;35974;47.752;10.290;2024-03-25T00:04:38;93138.25;;;0.33;100.00
50093;BME280;35974;47.752;10.290;2024-03-25T00:07:04;93154.03;;;0.39;100.00
50093;BME280;35974;47.752;10.290;2024-03-25T00:09:30;93140.69;;;0.51;100.00
50093;BME280;35974;47.752;10.290;2024-03-25T00:11:55;93142.78;;;0.72;100.00
50093;BME280;35974;47.752;10.290;2024-03-25T00:14:21;93120.56;;;0.63;100.00
50093;BME280;35974;47.752;10.290;2024-03-25T00:16:47;93153.38;;;0.78;100.00
50093;BME280;35974;47.752;10.290;2024-03-25T00:19:12;93146.97;;;0.73;100.00
50093;BME280;35974;47.752;10.290;2024-03-25T00:21:38;93148.56;;;0.58;100.00
50093;BME280;35974;47.752;10.290;2024-03-25T00:24:03;93132.47;;;0.72;100.00
50093;BME280;35974;47.752;10.290;2024-03-25T00:26:29;93141.81;;;0.65;100.00
50093;BME280;35974;47.752;10.290;2024-03-25T00:28:55;93139.56;;;0.46;100.00
50093;BME280;35974;47.752;10.290;2024-03-25T00:31:20;93120.25;;;0.50;100.00
50093;BME280;35974;47.752;10.290;2024-03-25T00:33:46;93153.72;;;0.58;100.00
50093;BME280;35974;47.752;10.290;2024-03-25T00:36:11;93137.16;;;0.52;100.00
50093;BME280;35974;47.752;10.290;2024-03-25T00:38:37;93127.97;;;0.42;100.00
50093;BME280;35974;47.752;10.290;2024-03-25T00:41:03;93152.44;;;0.62;100.00
50093;BME280;35974;47.752;10.290;2024-03-25T00:43:29;93138.91;;;0.52;100.00
50093;BME280;35974;47.752;10.290;2024-03-25T00:45:54;93131.69;;;0.64;100.00
50093;BME280;35974;47.752;10.290;2024-03-25T00:48:20;93138.25;;;0.58;100.00
50093;BME280;35974;47.752;10.290;2024-03-25T00:50:45;93122.19;;;0.48;100.00
50093;BME280;35974;47.752;10.290;2024-03-25T00:53:11;93105.28;;;0.53;100.00
50093;BME280;35974;47.752;10.290;2024-03-25T00:55:38;93127.97;;;0.58;100.00
50093;BME280;35974;47.752;10.290;2024-03-25T00:58:04;93121.88;;;0.51;100.00
50093;BME280;35974;47.752;10.290;2024-03-25T01:00:29;93153.06;;;0.64;100.00
50093;BME280;35974;47.752;10.290;2024-03-25T01:02:55;93124.75;;;0.56;100.00
50093;BME280;35974;47.752;10.290;2024-03-25T01:05:23;93132.78;;;0.61;100.00
50093;BME280;35974;47.752;10.290;2024-03-25T01:07:48;93118.50;;;0.59;100.00
50093;BME280;35974;47.752;10.290;2024-03-25T01:10:15;93139.25;;;0.65;100.00
50093;BME280;35974;47.752;10.290;2024-03-25T01:12:41;93136.84;;;0.47;100.00
50093;BME280;35974;47.752;10.290;2024-03-25T01:15:07;93133.44;;;0.55;100.00
50093;BME280;35974;47.752;10.290;2024-03-25T01:17:36;93142.47;;;0.67;100.00
50093;BME280;35974;47.752;10.290;2024-03-25T01:20:01;93141.16;;;0.63;100.00
50093;BME280;35974;47.752;10.290;2024-03-25T01:22:27;93115.56;;;0.53;100.00
50093;BME280;35974;47.752;10.290;2024-03-25T01:24:52;93117.81;;;0.65;100.00
50093;BME280;35974;47.752;10.290;2024-03-25T01:27:24;93108.69;;;0.46;100.00
50093;BME280;35974;47.752;10.290;2024-03-25T01:29:50;93083.25;;;0.43;100.00
50093;BME280;35974;47.752;10.290;2024-03-25T01:32:15;93106.09;;;0.62;100.00
50093;BME280;35974;47.752;10.290;2024-03-25T01:34:41;93100.28;;;0.44;100.00
50093;BME280;35974;47.752;10.290;2024-03-25T01:37:06;93086.16;;;0.48;100.00
50093;BME280;35974;47.752;10.290;2024-03-25T01:39:32;93109.63;;;0.69;100.00
50093;BME280;35974;47.752;10.290;2024-03-25T01:41:59;93091.63;;;0.45;100.00
50093;BME280;35974;47.752;10.290;2024-03-25T01:44:24;93097.72;;;0.52;100.00
50093;BME280;35974;47.752;10.290;2024-03-25T01:46:50;93085.81;;;0.51;100.00
50093;BME280;35974;47.752;10.290;2024-03-25T01:49:18;93099.19;;;0.54;100.00
50093;BME280;35974;47.752;10.290;2024-03-25T01:51:45;93097.41;;;0.55;100.00
50093;BME280;35974;47.752;10.290;2024-03-25T01:54:11;93093.06;;;0.56;100.00
50093;BME280;35974;47.752;10.290;2024-03-25T01:56:39;93092.56;;;0.68;100.00
50093;BME280;35974;47.752;10.290;2024-03-25T01:59:07;93105.75;;;0.73;100.00
50093;BME280;35974;47.752;10.290;2024-03-25T02:01:33;93101.91;;;0.61;100.00
50093;BME280;35974;47.752;10.290;2024-03-25T02:03:59;93094.81;;;0.47;100.00
50093;BME280;35974;47.752;10.290;2024-03-25T02:06:27;93108.31;;;0.82;100.00
50093;BME280;35974;47.752;10.290;2024-03-25T02:08:54;93114.13;;;0.76;100.00
50093;BME280;35974;47.752;10.290;2024-03-25T02:11:20;93085.66;;;0.61;100.00
50093;BME280;35974;47.752;10.290;2024-03-25T02:13:46;93089.00;;;0.86;100.00
50093;BME280;35974;47.752;10.290;2024-03-25T02:16:12;93100.28;;;0.77;100.00
50093;BME280;35974;47.752;10.290;2024-03-25T02:18:38;93098.03;;;0.82;100.00
50093;BME280;35974;47.752;10.290;2024-03-25T02:21:04;93087.41;;;0.85;100.00
50093;BME280;35974;47.752;10.290;2024-03-25T02:23:31;93088.38;;;0.76;100.00
50093;BME280;35974;47.752;10.290;2024-03-25T02:25:59;93096.56;;;0.87;100.00
50093;BME280;35974;47.752;10.290;2024-03-25T02:28:25;93078.25;;;0.66;100.00
50093;BME280;35974;47.752;10.290;2024-03-25T02:30:53;93098.34;;;0.87;100.00
50093;BME280;35974;47.752;10.290;2024-03-25T02:33:19;93109.91;;;0.83;100.00
50093;BME280;35974;47.752;10.290;2024-03-25T02:35:44;93083.38;;;0.82;100.00
50093;BME280;35974;47.752;10.290;2024-03-25T02:38:10;93107.28;;;1.24;100.00
50093;BME280;35974;47.752;10.290;2024-03-25T02:40:36;93090.72;;;1.10;100.00
50093;BME280;35974;47.752;10.290;2024-03-25T02:43:03;93075.75;;;0.97;100.00
50093;BME280;35974;47.752;10.290;2024-03-25T02:45:29;93086.41;;;0.94;100.00
50093;BME280;35974;47.752;10.290;2024-03-25T02:47:55;93098.47;;;1.02;100.00
50093;BME280;35974;47.752;10.290;2024-03-25T02:50:20;93079.69;;;0.85;100.00
50093;BME280;35974;47.752;10.290;2024-03-25T02:52:46;93084.13;;;1.07;100.00
50093;BME280;35974;47.752;10.290;2024-03-25T02:55:11;93102.53;;;1.44;100.00
50093;BME280;35974;47.752;10.290;2024-03-25T02:57:37;93085.38;;;1.20;100.00
50093;BME280;35974;47.752;10.290;2024-03-25T03:00:02;93073.16;;;1.05;100.00
50093;BME280;35974;47.752;10.290;2024-03-25T03:02:28;93081.41;;;1.01;100.00
50093;BME280;35974;47.752;10.290;2024-03-25T03:04:54;93069.63;;;1.06;100.00
50093;BME280;35974;47.752;10.290;2024-03-25T03:07:19;93091.84;;;1.07;100.00
50093;BME280;35974;47.752;10.290;2024-03-25T03:09:45;93087.69;;;0.98;100.00
50093;BME280;35974;47.752;10.290;2024-03-25T03:12:11;93090.28;;;0.90;100.00
50093;BME280;35974;47.752;10.290;2024-03-25T03:14:36;93080.91;;;0.97;100.00
50093;BME280;35974;47.752;10.290;2024-03-25T03:17:02;93083.72;;;0.71;100.00
50093;BME280;35974;47.752;10.290;2024-03-25T03:19:31;93094.81;;;0.80;100.00
50093;BME280;35974;47.752;10.290;2024-03-25T03:21:56;93089.66;;;0.80;100.00
50093;BME280;35974;47.752;10.290;2024-03-25T03:24:22;93072.88;;;0.92;100.00
50093;BME280;35974;47.752;10.290;2024-03-25T03:26:48;93070.34;;;0.84;100.00
50093;BME280;35974;47.752;10.290;2024-03-25T03:29:15;93071.31;;;0.75;100.00
50093;BME280;35974;47.752;10.290;2024-03-25T03:31:41;93079.97;;;0.90;100.00
50093;BME280;35974;47.752;10.290;2024-03-25T03:34:07;93064.88;;;0.70;100.00
50093;BME280;35974;47.752;10.290;2024-03-25T03:36:33;93073.25;;;0.72;100.00
50093;BME280;35974;47.752;10.290;2024-03-25T03:38:58;93078.53;;;0.79;100.00
50093;BME280;35974;47.752;10.290;2024-03-25T03:41:24;93089.97;;;0.93;100.00
50093;BME280;35974;47.752;10.290;2024-03-25T03:43:49;93068.69;;;0.99;100.00
50093;BME280;35974;47.752;10.290;2024-03-25T03:46:15;93070.63;;;0.97;100.00
50093;BME280;35974;47.752;10.290;2024-03-25T03:48:40;93079.00;;;0.99;100.00
50093;BME280;35974;47.752;10.290;2024-03-25T03:51:06;93077.09;;;0.85;100.00
50093;BME280;35974;47.752;10.290;2024-03-25T03:53:33;93077.25;;;0.83;100.00
50093;BME280;35974;47.752;10.290;2024-03-25T03:56:03;93080.94;;;0.89;100.00
50093;BME280;35974;47.752;10.290;2024-03-25T03:58:34;93099.78;;;0.89;100.00
50093;BME280;35974;47.752;10.290;2024-03-25T04:01:00;93078.38;;;0.89;100.00
50093;BME280;35974;47.752;10.290;2024-03-25T04:03:26;93102.53;;;0.88;100.00
50093;BME280;35974;47.752;10.290;2024-03-25T04:05:51;93068.41;;;0.69;100.00
50093;BME280;35974;47.752;10.290;2024-03-25T04:08:17;93093.50;;;0.92;100.00
50093;BME280;35974;47.752;10.290;2024-03-25T04:10:44;93085.13;;;0.90;100.00
50093;BME280;35974;47.752;10.290;2024-03-25T04:13:10;93085.13;;;0.90;100.00
50093;BME280;35974;47.752;10.290;2024-03-25T04:15:40;93083.84;;;0.86;100.00
50093;BME280;35974;47.752;10.290;2024-03-25T04:18:06;93083.06;;;0.77;100.00
50093;BME280;35974;47.752;10.290;2024-03-25T04:20:50;93075.19;;;0.70;100.00
50093;BME280;35974;47.752;10.290;2024-03-25T04:23:15;93111.19;;;1.03;100.00
50093;BME280;35974;47.752;10.290;2024-03-25T04:25:41;93090.28;;;0.90;100.00
50093;BME280;35974;47.752;10.290;2024-03-25T04:28:06;93077.09;;;0.85;100.00
50093;BME280;35974;47.752;10.290;2024-03-25T04:30:32;93079.69;;;0.77;100.00
50093;BME280;35974;47.752;10.290;2024-03-25T04:32:59;93072.63;;;0.62;100.00
50093;BME280;35974;47.752;10.290;2024-03-25T04:35:25;93064.56;;;0.73;100.00
50093;BME280;35974;47.752;10.290;2024-03-25T04:37:51;93073.09;;;0.66;100.00
50093;BME280;35974;47.752;10.290;2024-03-25T04:40:16;93101.84;;;0.94;100.00
50093;BME280;35974;47.752;10.290;2024-03-25T04:42:44;93083.84;;;0.86;100.00
50093;BME280;35974;47.752;10.290;2024-03-25T04:45:10;93092.88;;;0.82;100.00
50093;BME280;35974;47.752;10.290;2024-03-25T04:47:35;93090.31;;;0.73;100.00
50093;BME280;35974;47.752;10.290;2024-03-25T04:50:01;93098.34;;;0.87;100.00
50093;BME280;35974;47.752;10.290;2024-03-25T04:52:28;93077.78;;;0.62;100.00
50093;BME280;35974;47.752;10.290;2024-03-25T04:54:53;93071.66;;;0.55;100.00
50093;BME280;35974;47.752;10.290;2024-03-25T04:57:19;93103.81;;;0.76;100.00
50093;BME280;35974;47.752;10.290;2024-03-25T04:59:44;93086.13;;;0.64;100.00
50093;BME280;35974;47.752;10.290;2024-03-25T05:02:10;93076.31;;;0.68;100.00
50093;BME280;35974;47.752;10.290;2024-03-25T05:04:35;93076.47;;;0.58;100.00
50093;BME280;35974;47.752;10.290;2024-03-25T05:07:01;93067.81;;;0.51;100.00
50093;BME280;35974;47.752;10.290;2024-03-25T05:09:26;93075.19;;;0.62;100.00
50093;BME280;35974;47.752;10.290;2024-03-25T05:11:52;93090.00;;;0.77;100.00
50093;BME280;35974;47.752;10.290;2024-03-25T05:14:17;93079.03;;;0.66;100.00
50093;BME280;35974;47.752;10.290;2024-03-25T05:16:43;93079.06;;;0.50;100.00
50093;BME280;35974;47.752;10.290;2024-03-25T05:19:08;93069.09;;;0.47;100.00
50093;BME280;35974;47.752;10.290;2024-03-25T05:21:35;93063.31;;;0.36;100.00
50093;BME280;35974;47.752;10.290;2024-03-25T05:24:00;93066.53;;;0.39;100.00
50093;BME280;35974;47.752;10.290;2024-03-25T05:26:26;93027.44;;;0.27;100.00
50093;BME280;35974;47.752;10.290;2024-03-25T05:28:55;93084.53;;;0.47;100.00
50093;BME280;35974;47.752;10.290;2024-03-25T05:31:21;93076.50;;;0.50;100.00
50093;BME280;35974;47.752;10.290;2024-03-25T05:33:48;93095.16;;;0.52;100.00
50093;BME280;35974;47.752;10.290;2024-03-25T05:36:14;93069.41;;;0.27;100.00
50093;BME280;35974;47.752;10.290;2024-03-25T05:38:40;93111.88;;;0.31;100.00
50093;BME280;35974;47.752;10.290;2024-03-25T05:41:07;93078.44;;;0.07;100.00
50093;BME280;35974;47.752;10.290;2024-03-25T05:43:32;93091.63;;;0.28;100.00
50093;BME280;35974;47.752;10.290;2024-03-25T05:45:58;93090.63;;;0.21;100.00
50093;BME280;35974;47.752;10.290;2024-03-25T05:48:27;93102.38;;;0.32;100.00
50093;BME280;35974;47.752;10.290;2024-03-25T05:51:03;93109.63;;;0.28;100.00
50093;BME280;35974;47.752;10.290;2024-03-25T05:53:38;93083.41;;;0.16;100.00
50093;BME280;35974;47.752;10.290;2024-03-25T05:56:04;93087.75;;;0.16;100.00
50093;BME280;35974;47.752;10.290;2024-03-25T05:58:30;93100.28;;;0.27;100.00
50093;BME280;35974;47.752;10.290;2024-03-25T06:00:55;93084.22;;;0.17;100.00
50093;BME280;35974;47.752;10.290;2024-03-25T06:03:21;93094.66;;;0.24;100.00
50093;BME280;35974;47.752;10.290;2024-03-25T06:05:48;93085.16;;;0.16;100.00
50093;BME280;35974;47.752;10.290;2024-03-25T06:08:13;93095.47;;;0.24;100.00
50093;BME280;35974;47.752;10.290;2024-03-25T06:10:51;93073.94;;;0.33;100.00
50093;BME280;35974;47.752;10.290;2024-03-25T06:13:20;93074.22;;;0.47;100.00
50093;BME280;35974;47.752;10.290;2024-03-25T06:15:46;93096.44;;;0.64;100.00
50093;BME280;35974;47.752;10.290;2024-03-25T06:18:12;93097.38;;;0.71;100.00
50093;BME280;35974;47.752;10.290;2024-03-25T06:20:38;93081.63;;;0.58;100.00
50093;BME280;35974;47.752;10.290;2024-03-25T06:23:04;93080.66;;;0.67;100.00
50093;BME280;35974;47.752;10.290;2024-03-25T06:25:31;93099.63;;;0.83;100.00
50093;BME280;35974;47.752;10.290;2024-03-25T06:27:58;93079.38;;;0.80;100.00
50093;BME280;35974;47.752;10.290;2024-03-25T06:30:24;93051.38;;;0.68;100.00
50093;BME280;35974;47.752;10.290;2024-03-25T06:33:09;93076.75;;;0.96;100.00
50093;BME280;35974;47.752;10.290;2024-03-25T06:35:53;93075.16;;;0.87;100.00
50093;BME280;35974;47.752;10.290;2024-03-25T06:38:19;93051.66;;;0.82;100.00
50093;BME280;35974;47.752;10.290;2024-03-25T06:40:45;93072.19;;;1.15;100.00
50093;BME280;35974;47.752;10.290;2024-03-25T06:43:14;93069.25;;;1.26;100.00
50093;BME280;35974;47.752;10.290;2024-03-25T06:45:42;93094.63;;;1.45;100.00
50093;BME280;35974;47.752;10.290;2024-03-25T06:48:07;93063.44;;;1.32;100.00
50093;BME280;35974;47.752;10.290;2024-03-25T06:50:34;93087.44;;;1.64;100.00
50093;BME280;35974;47.752;10.290;2024-03-25T06:53:00;93085.53;;;1.66;100.00
50093;BME280;35974;47.752;10.290;2024-03-25T06:55:25;93087.09;;;1.67;100.00
50093;BME280;35974;47.752;10.290;2024-03-25T06:57:54;93068.75;;;1.62;100.00
50093;BME280;35974;47.752;10.290;2024-03-25T07:00:20;93077.22;;;1.79;100.00
50093;BME280;35974;47.752;10.290;2024-03-25T07:02:48;93093.13;;;1.91;100.00
50093;BME280;35974;47.752;10.290;2024-03-25T07:05:14;93077.97;;;1.88;100.00
50093;BME280;35974;47.752;10.290;2024-03-25T07:07:39;93066.53;;;2.13;100.00
50093;BME280;35974;47.752;10.290;2024-03-25T07:10:06;93069.41;;;2.18;100.00
50093;BME280;35974;47.752;10.290;2024-03-25T07:12:32;93065.94;;;2.03;100.00
50093;BME280;35974;47.752;10.290;2024-03-25T07:14:57;93052.34;;;2.09;100.00
50093;BME280;35974;47.752;10.290;2024-03-25T07:17:23;93057.78;;;2.14;100.00
50093;BME280;35974;47.752;10.290;2024-03-25T07:19:51;93068.03;;;2.31;100.00
50093;BME280;35974;47.752;10.290;2024-03-25T07:22:16;93062.63;;;2.17;100.00
50093;BME280;35974;47.752;10.290;2024-03-25T07:24:42;93064.31;;;2.48;100.00
50093;BME280;35974;47.752;10.290;2024-03-25T07:27:10;93057.22;;;2.50;100.00
50093;BME280;35974;47.752;10.290;2024-03-25T07:29:37;93067.75;;;2.64;100.00
50093;BME280;35974;47.752;10.290;2024-03-25T07:32:05;93058.81;;;2.51;100.00
50093;BME280;35974;47.752;10.290;2024-03-25T07:34:31;93063.03;;;2.67;100.00
50093;BME280;35974;47.752;10.290;2024-03-25T07:36:56;93041.72;;;2.50;100.00
50093;BME280;35974;47.752;10.290;2024-03-25T07:39:22;93044.78;;;2.84;100.00
50093;BME280;35974;47.752;10.290;2024-03-25T07:41:49;93046.75;;;2.97;100.00
50093;BME280;35974;47.752;10.290;2024-03-25T07:44:15;92984.47;;;2.77;100.00
50093;BME280;35974;47.752;10.290;2024-03-25T07:46:41;93048.91;;;3.08;100.00
50093;BME280;35974;47.752;10.290;2024-03-25T07:49:06;93044.09;;;3.05;100.00
50093;BME280;35974;47.752;10.290;2024-03-25T07:51:32;93052.03;;;3.03;100.00
50093;BME280;35974;47.752;10.290;2024-03-25T07:54:01;93072.69;;;3.18;100.00
50093;BME280;35974;47.752;10.290;2024-03-25T07:56:28;93021.97;;;2.87;100.00
50093;BME280;35974;47.752;10.290;2024-03-25T07:58:54;93041.41;;;2.83;100.00
50093;BME280;35974;47.752;10.290;2024-03-25T08:01:20;93044.88;;;2.90;100.00
50093;BME280;35974;47.752;10.290;2024-03-25T08:03:49;93047.47;;;2.90;100.00
50093;BME280;35974;47.752;10.290;2024-03-25T08:06:17;93051.22;;;3.03;100.00
50093;BME280;35974;47.752;10.290;2024-03-25T08:08:42;93056.41;;;3.18;100.00
50093;BME280;35974;47.752;10.290;2024-03-25T08:11:09;93050.69;;;3.22;100.00
50093;BME280;35974;47.752;10.290;2024-03-25T08:13:34;93032.34;;;3.17;100.00
50093;BME280;35974;47.752;10.290;2024-03-25T08:16:00;93027.59;;;3.36;100.00
50093;BME280;35974;47.752;10.290;2024-03-25T08:18:25;93031.06;;;3.43;100.00
50093;BME280;35974;47.752;10.290;2024-03-25T08:20:51;93026.28;;;3.61;100.00
50093;BME280;35974;47.752;10.290;2024-03-25T08:23:20;93017.75;;;3.61;100.00
50093;BME280;35974;47.752;10.290;2024-03-25T08:25:45;93034.69;;;3.85;100.00
50093;BME280;35974;47.752;10.290;2024-03-25T08:28:11;93038.16;;;3.71;100.00
50093;BME280;35974;47.752;10.290;2024-03-25T08:30:36;93035.38;;;3.72;100.00
50093;BME280;35974;47.752;10.290;2024-03-25T08:33:02;93033.72;;;3.86;100.00
50093;BME280;35974;47.752;10.290;2024-03-25T08:35:27;93026.31;;;3.83;100.00
50093;BME280;35974;47.752;10.290;2024-03-25T08:37:53;93020.78;;;3.86;100.00
50093;BME280;35974;47.752;10.290;2024-03-25T08:40:18;93014.25;;;3.90;100.00
50093;BME280;35974;47.752;10.290;2024-03-25T08:42:44;93008.09;;;3.91;100.00
50093;BME280;35974;47.752;10.290;2024-03-25T08:45:11;93032.94;;;4.07;100.00
50093;BME280;35974;47.752;10.290;2024-03-25T08:47:38;93014.50;;;3.95;100.00
50093;BME280;35974;47.752;10.290;2024-03-25T08:50:06;93018.31;;;3.78;100.00
50093;BME280;35974;47.752;10.290;2024-03-25T08:52:32;93006.88;;;3.87;100.00
50093;BME280;35974;47.752;10.290;2024-03-25T08:54:58;93020.66;;;4.16;100.00
50093;BME280;35974;47.752;10.290;2024-03-25T08:57:24;92990.97;;;4.12;100.00
50093;BME280;35974;47.752;10.290;2024-03-25T08:59:49;92984.16;;;4.32;100.00
50093;BME280;35974;47.752;10.290;2024-03-25T09:02:16;92997.72;;;4.91;100.00
50093;BME280;35974;47.752;10.290;2024-03-25T09:04:41;93010.91;;;4.96;100.00
50093;BME280;35974;47.752;10.290;2024-03-25T09:07:08;93003.97;;;5.03;100.00
50093;BME280;35974;47.752;10.290;2024-03-25T09:09:33;92977.44;;;5.01;100.00
50093;BME280;35974;47.752;10.290;2024-03-25T09:12:18;92995.81;;;5.06;100.00
50093;BME280;35974;47.752;10.290;2024-03-25T09:14:43;92983.13;;;5.25;100.00
50093;BME280;35974;47.752;10.290;2024-03-25T09:17:09;92958.31;;;5.02;100.00
50093;BME280;35974;47.752;10.290;2024-03-25T09:19:34;92966.50;;;5.12;100.00
50093;BME280;35974;47.752;10.290;2024-03-25T09:22:00;92960.41;;;5.34;100.00
50093;BME280;35974;47.752;10.290;2024-03-25T09:24:27;92972.44;;;5.41;100.00
50093;BME280;35974;47.752;10.290;2024-03-25T09:26:53;92956.47;;;5.44;100.00
50093;BME280;35974;47.752;10.290;2024-03-25T09:29:18;92969.81;;;5.35;100.00
50093;BME280;35974;47.752;10.290;2024-03-25T09:31:45;92983.56;;;5.35;100.00
50093;BME280;35974;47.752;10.290;2024-03-25T09:34:11;92985.56;;;5.33;100.00
50093;BME280;35974;47.752;10.290;2024-03-25T09:36:37;92953.34;;;5.62;100.00
50093;BME280;35974;47.752;10.290;2024-03-25T09:39:04;92948.66;;;6.06;100.00
50093;BME280;35974;47.752;10.290;2024-03-25T09:41:35;92954.63;;;6.00;100.00
50093;BME280;35974;47.752;10.290;2024-03-25T09:44:03;92963.00;;;6.02;100.00
50093;BME280;35974;47.752;10.290;2024-03-25T09:46:31;92950.97;;;5.87;100.00
50093;BME280;35974;47.752;10.290;2024-03-25T09:48:59;92943.38;;;5.93;100.00
50093;BME280;35974;47.752;10.290;2024-03-25T09:51:25;92936.66;;;6.05;100.00
50093;BME280;35974;47.752;10.290;2024-03-25T09:53:51;92924.44;;;5.99;100.00
50093;BME280;35974;47.752;10.290;2024-03-25T09:56:18;92921.38;;;5.62;100.00
50093;BME280;35974;47.752;10.290;2024-03-25T09:58:44;92899.03;;;5.81;100.00
50093;BME280;35974;47.752;10.290;2024-03-25T10:01:10;92909.50;;;6.14;100.00
50093;BME280;35974;47.752;10.290;2024-03-25T10:03:35;92927.47;;;6.22;100.00
50093;BME280;35974;47.752;10.290;2024-03-25T10:06:02;92905.06;;;5.95;100.00
50093;BME280;35974;47.752;10.290;2024-03-25T10:08:29;92903.84;;;5.91;100.00
50093;BME280;35974;47.752;10.290;2024-03-25T10:11:00;92916.66;;;5.99;100.00
50093;BME280;35974;47.752;10.290;2024-03-25T10:13:27;92909.88;;;5.98;100.00
50093;BME280;35974;47.752;10.290;2024-03-25T10:15:55;92915.66;;;6.20;100.00
50093;BME280;35974;47.752;10.290;2024-03-25T10:18:24;92924.63;;;6.64;100.00
50093;BME280;35974;47.752;10.290;2024-03-25T10:20:53;92906.19;;;6.79;100.00
50093;BME280;35974;47.752;10.290;2024-03-25T10:23:25;92909.81;;;6.78;100.00
50093;BME280;35974;47.752;10.290;2024-03-25T10:25:54;92875.03;;;6.66;100.00
50093;BME280;35974;47.752;10.290;2024-03-25T10:28:20;92880.19;;;6.79;100.00
50093;BME280;35974;47.752;10.290;2024-03-25T10:30:46;92865.31;;;7.00;100.00
50093;BME280;35974;47.752;10.290;2024-03-25T10:33:12;92865.97;;;7.33;100.00
50093;BME280;35974;47.752;10.290;2024-03-25T10:35:40;92863.81;;;7.62;100.00
50093;BME280;35974;47.752;10.290;2024-03-25T10:38:10;92864.88;;;7.80;100.00
50093;BME280;35974;47.752;10.290;2024-03-25T10:40:37;92873.19;;;7.95;100.00
50093;BME280;35974;47.752;10.290;2024-03-25T10:43:08;92868.28;;;8.05;100.00
50093;BME280;35974;47.752;10.290;2024-03-25T10:45:49;92860.41;;;8.37;100.00
50093;BME280;35974;47.752;10.290;2024-03-25T10:48:28;92857.19;;;8.17;100.00
50093;BME280;35974;47.752;10.290;2024-03-25T10:50:56;92862.88;;;8.32;100.00
50093;BME280;35974;47.752;10.290;2024-03-25T10:53:24;92853.00;;;8.16;100.00
50093;BME280;35974;47.752;10.290;2024-03-25T10:55:54;92852.34;;;7.95;100.00
50093;BME280;35974;47.752;10.290;2024-03-25T10:58:21;92866.28;;;8.07;100.00
50093;BME280;35974;47.752;10.290;2024-03-25T11:00:48;92832.09;;;7.97;100.00
50093;BME280;35974;47.752;10.290;2024-03-25T11:03:16;92830.38;;;8.10;100.00
50093;BME280;35974;47.752;10.290;2024-03-25T11:05:42;92818.03;;;8.23;100.00
50093;BME280;35974;47.752;10.290;2024-03-25T11:08:30;92808.97;;;8.51;100.00
50093;BME280;35974;47.752;10.290;2024-03-25T11:10:57;92813.63;;;8.68;100.00
50093;BME280;35974;47.752;10.290;2024-03-25T11:13:26;92825.13;;;8.78;100.00
50093;BME280;35974;47.752;10.290;2024-03-25T11:15:53;92808.25;;;8.81;100.00
50093;BME280;35974;47.752;10.290;2024-03-25T11:18:24;92802.06;;;8.94;100.00
50093;BME280;35974;47.752;10.290;2024-03-25T11:21:04;92795.84;;;8.76;100.00
50093;BME280;35974;47.752;10.290;2024-03-25T11:23:44;92773.34;;;8.45;100.00
50093;BME280;35974;47.752;10.290;2024-03-25T11:26:26;92781.47;;;8.30;100.00
50093;BME280;35974;47.752;10.290;2024-03-25T11:29:03;92785.69;;;8.87;100.00
50093;BME280;35974;47.752;10.290;2024-03-25T11:31:29;92785.25;;;8.90;100.00
50093;BME280;35974;47.752;10.290;2024-03-25T11:33:56;92768.53;;;9.09;100.00
50093;BME280;35974;47.752;10.290;2024-03-25T11:36:22;92769.47;;;8.85;100.00
50093;BME280;35974;47.752;10.290;2024-03-25T11:38:58;92749.16;;;8.87;100.00
50093;BME280;35974;47.752;10.290;2024-03-25T11:41:25;92685.00;;;8.86;100.00
50093;BME280;35974;47.752;10.290;2024-03-25T11:43:51;92740.66;;;8.79;100.00
50093;BME280;35974;47.752;10.290;2024-03-25T11:46:19;92740.22;;;8.64;100.00
50093;BME280;35974;47.752;10.290;2024-03-25T11:48:45;92738.84;;;8.43;100.00
50093;BME280;35974;47.752;10.290;2024-03-25T11:51:17;92729.78;;;8.64;100.00
50093;BME280;35974;47.752;10.290;2024-03-25T11:53:43;92723.09;;;8.87;100.00
50093;BME280;35974;47.752;10.290;2024-03-25T11:56:11;92744.53;;;8.89;100.00
50093;BME280;35974;47.752;10.290;2024-03-25T11:58:38;92740.16;;;9.01;100.00
50093;BME280;35974;47.752;10.290;2024-03-25T12:01:04;92732.56;;;8.69;100.00
50093;BME280;35974;47.752;10.290;2024-03-25T12:03:29;92700.53;;;8.62;100.00
50093;BME280;35974;47.752;10.290;2024-03-25T12:05:56;92725.00;;;8.61;100.00
50093;BME280;35974;47.752;10.290;2024-03-25T12:08:25;92699.13;;;9.08;100.00
50093;BME280;35974;47.752;10.290;2024-03-25T12:10:52;92693.50;;;9.35;100.00
50093;BME280;35974;47.752;10.290;2024-03-25T12:13:38;92681.09;;;9.30;100.00
50093;BME280;35974;47.752;10.290;2024-03-25T12:16:08;92705.31;;;9.49;100.00
50093;BME280;35974;47.752;10.290;2024-03-25T12:18:35;92700.09;;;9.49;100.00
50093;BME280;35974;47.752;10.290;2024-03-25T12:21:04;92678.28;;;9.32;100.00
50093;BME280;35974;47.752;10.290;2024-03-25T12:23:32;92673.75;;;9.63;100.00
50093;BME280;35974;47.752;10.290;2024-03-25T12:26:02;92680.81;;;9.74;100.00
50093;BME280;35974;47.752;10.290;2024-03-25T12:28:30;92670.09;;;9.87;100.00
50093;BME280;35974;47.752;10.290;2024-03-25T12:30:56;92663.06;;;10.00;99.37
50093;BME280;35974;47.752;10.290;2024-03-25T12:33:25;92673.41;;;9.95;100.00
50093;BME280;35974;47.752;10.290;2024-03-25T12:35:52;92664.88;;;9.87;98.80
50093;BME280;35974;47.752;10.290;2024-03-25T12:38:24;92638.78;;;9.64;100.00
50093;BME280;35974;47.752;10.290;2024-03-25T12:40:50;92654.22;;;9.77;100.00
50093;BME280;35974;47.752;10.290;2024-03-25T12:43:16;92647.84;;;9.97;100.00
50093;BME280;35974;47.752;10.290;2024-03-25T12:45:41;92630.34;;;10.09;100.00
50093;BME280;35974;47.752;10.290;2024-03-25T12:48:08;92625.28;;;10.19;100.00
50093;BME280;35974;47.752;10.290;2024-03-25T12:50:34;92607.56;;;10.21;100.00